Time;durP1;ratioP1;P1;durP2;ratioP2;P2;SDS_P1;SDS_P2;PMS_P1;PMS_P2;Temp;Humidity;BMP_temperature;BMP_pressure;BME280_temperature;BME280_humidity;BME280_pressure;Samples;Min_cycle;Max_cycle;Signal;HPM_P1;HPM_P2
2022/05/03 00:00:23;;;;;;;2.38;0.98;;;8.30;99.30;;;;;;4967820;28;20035;-85
2022/05/03 00:03:11;;;;;;;2.50;1.02;;;8.20;99.50;;;;;;4979098;28;20014;-86
2022/05/03 00:05:46;;;;;;;2.35;0.85;;;8.20;99.60;;;;;;4961157;28;20537;-86
2022/05/03 00:08:23;;;;;;;2.15;1.00;;;8.20;99.70;;;;;;4974471;28;20038;-86
2022/05/03 00:10:54;;;;;;;3.38;1.00;;;8.10;99.90;;;;;;4982127;28;20031;-86
2022/05/03 00:13:27;;;;;;;4.15;1.20;;;8.10;99.90;;;;;;4974522;28;20042;-86
2022/05/03 00:15:55;;;;;;;3.35;1.00;;;8.00;99.90;;;;;;4976324;28;20076;-86
2022/05/03 00:18:21;;;;;;;3.25;1.05;;;8.00;99.90;;;;;;4975121;28;20072;-86
2022/05/03 00:20:48;;;;;;;3.67;1.00;;;7.90;99.90;;;;;;4973284;28;20035;-85
2022/05/03 00:23:15;;;;;;;2.30;1.02;;;7.90;99.90;;;;;;4963774;28;20034;-86
2022/05/03 00:25:41;;;;;;;3.13;1.08;;;7.80;99.90;;;;;;4972464;28;20073;-86
2022/05/03 00:28:08;;;;;;;2.40;1.05;;;7.80;99.90;;;;;;4976004;28;20026;-86
2022/05/03 00:30:36;;;;;;;3.50;1.23;;;7.80;99.90;;;;;;4975014;28;20050;-86
2022/05/03 00:33:04;;;;;;;2.50;1.02;;;7.80;99.90;;;;;;4977181;28;20066;-86
2022/05/03 00:35:31;;;;;;;2.65;0.90;;;7.70;99.90;;;;;;4960369;28;20035;-86
2022/05/03 00:37:56;;;;;;;3.42;1.20;;;7.70;99.90;;;;;;4975483;28;20533;-86
2022/05/03 00:40:24;;;;;;;3.15;1.33;;;7.60;99.90;;;;;;4978645;28;20030;-86
2022/05/03 00:43:09;;;;;;;2.67;1.23;;;7.60;99.90;;;;;;4979345;28;20026;-86
2022/05/03 00:46:00;;;;;;;2.67;1.35;;;7.60;99.90;;;;;;4969353;28;20033;-86
2022/05/03 00:48:32;;;;;;;5.28;1.30;;;7.60;99.90;;;;;;4970445;28;20442;-86
2022/05/03 00:51:12;;;;;;;2.58;1.35;;;7.50;99.90;;;;;;4972520;28;20046;-86
2022/05/03 00:53:59;;;;;;;2.83;1.30;;;7.50;99.90;;;;;;4978781;28;20177;-85
2022/05/03 00:56:48;;;;;;;2.88;0.95;;;7.40;99.90;;;;;;4974661;28;20038;-86
2022/05/03 00:59:39;;;;;;;2.15;1.00;;;7.40;99.90;;;;;;4975254;28;20132;-86
2022/05/03 01:02:06;;;;;;;2.85;0.85;;;7.40;99.90;;;;;;4975198;28;20022;-86
2022/05/03 01:04:46;;;;;;;4.07;1.10;;;7.30;99.90;;;;;;4962018;28;20085;-86
2022/05/03 01:07:33;;;;;;;2.53;1.25;;;7.30;99.90;;;;;;4976077;28;20038;-86
2022/05/03 01:10:20;;;;;;;4.60;1.20;;;7.30;99.90;;;;;;4962373;28;20038;-85
2022/05/03 01:13:19;;;;;;;3.72;1.60;;;7.30;99.90;;;;;;4968610;28;20023;-85
2022/05/03 01:16:01;;;;;;;6.15;1.42;;;7.30;99.90;;;;;;4961360;28;20033;-86
2022/05/03 01:18:37;;;;;;;2.78;1.15;;;7.20;99.90;;;;;;4974086;28;20027;-86
2022/05/03 01:21:08;;;;;;;4.43;1.40;;;7.20;99.90;;;;;;4963428;28;20042;-86
2022/05/03 01:23:52;;;;;;;4.95;1.42;;;7.20;99.90;;;;;;4959975;28;20022;-86
2022/05/03 01:26:47;;;;;;;2.35;1.08;;;7.10;99.90;;;;;;4967482;28;20030;-86
2022/05/03 01:29:33;;;;;;;4.97;1.75;;;7.10;99.90;;;;;;4975632;28;20046;-86
2022/05/03 01:32:07;;;;;;;2.78;1.27;;;7.00;99.90;;;;;;4988666;28;20054;-86
2022/05/03 01:34:34;;;;;;;4.32;1.58;;;7.00;99.90;;;;;;4977237;28;20037;-86
2022/05/03 01:36:59;;;;;;;3.10;1.30;;;6.90;99.90;;;;;;4975673;28;20085;-85
2022/05/03 01:39:46;;;;;;;3.67;1.20;;;6.90;99.90;;;;;;4974156;28;20035;-85
2022/05/03 01:42:39;;;;;;;4.38;1.60;;;6.80;99.90;;;;;;4974654;28;20505;-86
2022/05/03 01:45:10;;;;;;;3.63;1.50;;;6.80;99.90;;;;;;4982872;28;20031;-86
2022/05/03 01:47:49;;;;;;;3.97;1.73;;;6.70;99.90;;;;;;4976711;28;20027;-86
2022/05/03 01:50:33;;;;;;;3.10;1.63;;;6.60;99.90;;;;;;4984355;28;20414;-86
2022/05/03 01:53:16;;;;;;;6.43;1.73;;;6.60;99.90;;;;;;4973415;28;20031;-86
2022/05/03 01:56:05;;;;;;;3.17;1.73;;;6.60;99.90;;;;;;4993603;28;20098;-86
2022/05/03 01:58:35;;;;;;;3.70;1.73;;;6.50;99.90;;;;;;4980847;28;20081;-86
2022/05/03 02:01:27;;;;;;;4.90;1.75;;;6.40;99.90;;;;;;4965846;28;20459;-85
2022/05/03 02:04:19;;;;;;;3.13;1.58;;;6.30;99.90;;;;;;4968635;28;20023;-85
2022/05/03 02:06:59;;;;;;;4.00;1.88;;;6.30;99.90;;;;;;4967510;28;20081;-86
2022/05/03 02:10:04;;;;;;;5.93;2.05;;;6.30;99.90;;;;;;4970926;28;20110;-85
2022/05/03 02:12:31;;;;;;;3.92;2.28;;;6.30;99.90;;;;;;4971317;28;20486;-86
2022/05/03 02:15:09;;;;;;;4.70;1.90;;;6.20;99.90;;;;;;4974553;28;20031;-85
2022/05/03 02:17:51;;;;;;;3.88;1.60;;;6.20;99.90;;;;;;4977776;28;20498;-86
2022/05/03 02:20:35;;;;;;;5.75;2.17;;;6.20;99.90;;;;;;4975205;28;20022;-86
2022/05/03 02:23:24;;;;;;;6.72;2.05;;;6.20;99.90;;;;;;4962076;28;20036;-86
2022/05/03 02:26:30;;;;;;;5.40;2.20;;;6.10;99.90;;;;;;4969272;28;20031;-86
2022/05/03 02:29:38;;;;;;;3.63;2.13;;;6.10;99.90;;;;;;4966667;28;20022;-86
2022/05/03 02:32:11;;;;;;;5.90;2.10;;;6.10;99.90;;;;;;4962391;28;20104;-86
2022/05/03 02:34:48;;;;;;;4.90;2.80;;;6.00;99.90;;;;;;4976083;28;20030;-86
2022/05/03 02:37:25;;;;;;;3.80;2.17;;;6.00;99.90;;;;;;4977278;28;20050;-86
2022/05/03 02:40:00;;;;;;;4.47;2.67;;;6.00;99.90;;;;;;4958010;28;20033;-86
2022/05/03 02:42:26;;;;;;;5.25;3.03;;;6.00;99.90;;;;;;4974532;28;20076;-86
2022/05/03 02:45:00;;;;;;;5.28;2.70;;;6.00;99.90;;;;;;4968062;28;20058;-86
2022/05/03 02:47:41;;;;;;;4.80;2.10;;;6.10;99.90;;;;;;4968439;28;20088;-86
2022/05/03 02:50:09;;;;;;;6.28;2.65;;;6.10;99.90;;;;;;4968572;28;20117;-86
2022/05/03 02:52:57;;;;;;;4.15;2.15;;;6.10;99.90;;;;;;4978120;28;20042;-86
2022/05/03 02:55:40;;;;;;;4.97;2.55;;;6.10;99.90;;;;;;4959714;28;20425;-87
2022/05/03 02:58:22;;;;;;;4.10;2.33;;;5.90;99.90;;;;;;4990732;28;20022;-86
2022/05/03 03:04:05;;;;;;;5.78;2.40;;;5.80;99.90;;;;;;4980250;28;20045;-86
2022/05/03 03:06:36;;;;;;;5.82;2.95;;;5.80;99.90;;;;;;4988236;28;20034;-86
2022/05/03 03:09:03;;;;;;;5.15;2.95;;;5.70;99.90;;;;;;4978261;28;20042;-87
2022/05/03 03:11:46;;;;;;;5.97;2.50;;;5.70;99.90;;;;;;4970258;28;20496;-86
2022/05/03 03:14:35;;;;;;;6.40;2.85;;;5.70;99.90;;;;;;4957150;28;20031;-86
2022/05/03 03:17:06;;;;;;;4.63;2.55;;;5.60;99.90;;;;;;4965717;28;20026;-87
2022/05/03 03:19:37;;;;;;;6.00;2.95;;;5.70;99.90;;;;;;4985975;28;20543;-86
2022/05/03 03:22:11;;;;;;;8.82;2.78;;;5.60;99.90;;;;;;4984755;28;20099;-86
2022/05/03 03:24:38;;;;;;;7.70;3.25;;;5.60;99.90;;;;;;4984166;28;20390;-86
2022/05/03 03:27:06;;;;;;;7.10;3.40;;;5.50;99.90;;;;;;4974719;28;20568;-86
2022/05/03 03:29:32;;;;;;;7.07;3.10;;;5.50;99.90;;;;;;4980605;28;20482;-86
2022/05/03 03:32:00;;;;;;;4.65;2.85;;;5.50;99.90;;;;;;4990510;28;20056;-86
2022/05/03 03:34:27;;;;;;;4.97;2.88;;;5.50;99.90;;;;;;4976880;28;20031;-87
2022/05/03 03:37:01;;;;;;;6.05;2.65;;;5.40;99.90;;;;;;4959357;28;20427;-86
2022/05/03 03:39:30;;;;;;;5.60;2.90;;;5.40;99.90;;;;;;4977085;28;20122;-86
2022/05/03 03:42:00;;;;;;;6.85;3.67;;;5.40;99.90;;;;;;4974208;28;20101;-87
2022/05/03 03:44:26;;;;;;;6.68;3.10;;;5.30;99.90;;;;;;4976377;28;20034;-86
2022/05/03 03:46:51;;;;;;;6.60;2.50;;;5.30;99.90;;;;;;4988144;28;20046;-86
2022/05/03 03:49:17;;;;;;;7.40;3.65;;;5.30;99.90;;;;;;4978810;28;20122;-86
2022/05/03 03:51:44;;;;;;;5.55;3.38;;;5.30;99.90;;;;;;4960888;28;20030;-87
2022/05/03 03:54:09;;;;;;;6.93;3.13;;;5.30;99.90;;;;;;4973699;28;20023;-86
2022/05/03 03:56:35;;;;;;;6.25;3.30;;;5.30;99.90;;;;;;4971852;28;20027;-87
2022/05/03 03:59:02;;;;;;;4.60;2.92;;;5.30;99.90;;;;;;4967544;28;20035;-87
2022/05/03 04:01:28;;;;;;;5.05;3.20;;;5.30;99.90;;;;;;4967113;28;20042;-86
2022/05/03 04:03:54;;;;;;;5.97;3.10;;;5.30;99.90;;;;;;4983002;28;20030;-86
2022/05/03 04:06:20;;;;;;;7.38;3.80;;;5.30;99.90;;;;;;4975433;28;20058;-87
2022/05/03 04:08:45;;;;;;;5.47;3.17;;;5.30;99.90;;;;;;4991513;28;20042;-87
2022/05/03 04:11:17;;;;;;;10.05;4.20;;;5.30;99.90;;;;;;4978318;28;20038;-87
2022/05/03 04:13:44;;;;;;;7.72;3.80;;;5.30;99.90;;;;;;4988308;28;20031;-87
2022/05/03 04:16:10;;;;;;;6.68;3.78;;;5.30;99.90;;;;;;4977349;28;20030;-87
2022/05/03 04:18:54;;;;;;;5.38;3.03;;;5.30;99.90;;;;;;4973550;28;20033;-87
2022/05/03 04:21:19;;;;;;;7.88;3.30;;;5.40;99.90;;;;;;4980080;28;20030;-87
2022/05/03 04:23:45;;;;;;;7.43;3.53;;;5.40;99.90;;;;;;4990212;28;20030;-87
2022/05/03 04:26:14;;;;;;;8.65;3.83;;;5.40;99.90;;;;;;4976374;28;20065;-87
2022/05/03 04:28:40;;;;;;;10.70;5.10;;;5.40;99.90;;;;;;4974870;28;20026;-87
2022/05/03 04:31:06;;;;;;;8.00;4.95;;;5.40;99.90;;;;;;4979387;28;20038;-87
2022/05/03 04:33:31;;;;;;;7.57;3.47;;;5.50;99.90;;;;;;4967872;28;20047;-87
2022/05/03 04:35:57;;;;;;;10.85;4.93;;;5.50;99.90;;;;;;4977928;28;20113;-85
2022/05/03 04:38:23;;;;;;;7.25;4.15;;;5.50;99.90;;;;;;4976000;28;20031;-87
2022/05/03 04:40:48;;;;;;;7.13;3.88;;;5.60;99.90;;;;;;4986541;28;20387;-88
2022/05/03 04:43:13;;;;;;;13.77;4.72;;;5.60;99.90;;;;;;4978403;28;20344;-87
2022/05/03 04:45:39;;;;;;;8.52;4.05;;;5.60;99.90;;;;;;4969772;28;20394;-87
2022/05/03 04:48:05;;;;;;;8.38;5.00;;;5.60;99.90;;;;;;4970443;28;20031;-87
2022/05/03 04:50:31;;;;;;;9.27;5.30;;;5.70;99.90;;;;;;4972557;28;20039;-87
2022/05/03 04:52:57;;;;;;;10.30;5.13;;;5.70;99.90;;;;;;4969999;28;20026;-87
2022/05/03 04:55:23;;;;;;;7.93;5.38;;;5.70;99.90;;;;;;4967884;28;20025;-86
2022/05/03 04:57:49;;;;;;;10.18;5.65;;;5.70;99.90;;;;;;4981248;28;20100;-87
2022/05/03 05:00:16;;;;;;;11.93;5.55;;;5.80;99.90;;;;;;4967420;28;20035;-87
2022/05/03 05:02:41;;;;;;;8.95;5.80;;;5.90;99.90;;;;;;4977021;28;20069;-87
2022/05/03 05:05:07;;;;;;;9.40;5.78;;;5.90;99.90;;;;;;4977566;28;20035;-86
2022/05/03 05:07:33;;;;;;;10.05;5.72;;;6.00;99.90;;;;;;4962088;28;20027;-87
2022/05/03 05:12:42;;;;;;;10.70;5.75;;;6.10;99.90;;;;;;4996098;28;20053;-86
2022/05/03 05:15:08;;;;;;;7.25;4.90;;;6.20;99.90;;;;;;4975458;28;20026;-87
2022/05/03 05:17:34;;;;;;;9.82;6.28;;;6.20;99.90;;;;;;4971685;28;20026;-87
2022/05/03 05:19:59;;;;;;;12.32;6.00;;;6.30;99.90;;;;;;4997750;28;20058;-87
2022/05/03 05:22:25;;;;;;;7.78;4.70;;;6.40;99.90;;;;;;4998454;28;20030;-86
2022/05/03 05:24:51;;;;;;;11.02;5.35;;;6.50;99.90;;;;;;4976991;28;20026;-87
2022/05/03 05:27:16;;;;;;;9.98;5.07;;;6.60;99.90;;;;;;4978395;28;20022;-87
2022/05/03 05:29:42;;;;;;;7.88;5.38;;;6.70;99.90;;;;;;4973895;28;20128;-86
2022/05/03 05:32:08;;;;;;;7.78;5.43;;;6.80;99.90;;;;;;4971498;28;20047;-86
2022/05/03 05:34:34;;;;;;;7.57;4.68;;;6.90;99.90;;;;;;4993429;28;20041;-86
2022/05/03 05:37:00;;;;;;;10.23;4.50;;;7.10;99.90;;;;;;4988979;28;20022;-87
2022/05/03 05:39:25;;;;;;;8.82;3.97;;;7.50;99.90;;;;;;4982616;28;20034;-87
2022/05/03 05:41:59;;;;;;;7.45;4.07;;;7.90;99.90;;;;;;4969121;28;20026;-87
2022/05/03 05:44:25;;;;;;;7.32;3.65;;;8.20;99.90;;;;;;4985627;28;20025;-87
2022/05/03 05:46:54;;;;;;;6.78;3.83;;;8.50;99.90;;;;;;4977761;28;20018;-86
2022/05/03 05:49:20;;;;;;;5.75;3.22;;;8.70;99.90;;;;;;4979608;28;20112;-87
2022/05/03 05:51:45;;;;;;;6.65;4.05;;;8.80;99.90;;;;;;4980271;28;20484;-87
2022/05/03 05:54:12;;;;;;;6.80;4.32;;;8.80;99.90;;;;;;4980463;28;20153;-86
2022/05/03 05:56:38;;;;;;;8.32;3.95;;;8.90;99.90;;;;;;4979516;28;20034;-86
2022/05/03 05:59:04;;;;;;;6.28;3.40;;;9.00;99.90;;;;;;4981729;28;20072;-87
2022/05/03 06:01:37;;;;;;;5.63;3.72;;;9.10;99.90;;;;;;4995269;28;20039;-87
2022/05/03 06:04:02;;;;;;;7.97;3.47;;;9.10;99.90;;;;;;4975854;28;20106;-87
2022/05/03 06:06:28;;;;;;;6.50;3.13;;;9.20;99.90;;;;;;4977220;28;20126;-86
2022/05/03 06:08:53;;;;;;;5.80;3.25;;;9.30;99.90;;;;;;4978000;28;20388;-87
2022/05/03 06:11:19;;;;;;;6.05;3.72;;;9.30;99.90;;;;;;4976033;28;20022;-86
2022/05/03 06:13:44;;;;;;;4.97;3.35;;;9.30;99.90;;;;;;4979365;28;20019;-86
2022/05/03 06:16:11;;;;;;;10.35;3.08;;;9.40;99.90;;;;;;4980221;28;20054;-87
2022/05/03 06:18:40;;;;;;;5.80;3.10;;;9.50;99.90;;;;;;4978473;28;20057;-87
2022/05/03 06:21:07;;;;;;;6.30;3.00;;;9.60;99.90;;;;;;4978521;28;20098;-87
2022/05/03 06:23:33;;;;;;;8.60;3.10;;;9.60;99.90;;;;;;4975253;28;20023;-87
2022/05/03 06:25:59;;;;;;;6.43;3.15;;;9.60;99.90;;;;;;4971466;28;20085;-87
2022/05/03 06:28:25;;;;;;;5.55;2.58;;;9.80;99.90;;;;;;4979034;28;20429;-87
2022/05/03 06:30:50;;;;;;;4.70;2.50;;;9.90;99.90;;;;;;4970470;28;20039;-86
2022/05/03 06:33:17;;;;;;;6.95;3.03;;;10.00;99.90;;;;;;4971447;28;20046;-86
2022/05/03 06:35:43;;;;;;;5.63;3.17;;;10.20;99.90;;;;;;4968486;28;20136;-86
2022/05/03 06:38:08;;;;;;;3.47;1.80;;;10.30;99.90;;;;;;4975898;28;20058;-83
2022/05/03 06:40:34;;;;;;;4.07;2.20;;;10.40;99.90;;;;;;4978856;28;20098;-85
2022/05/03 06:42:59;;;;;;;3.85;1.60;;;10.50;99.90;;;;;;4979186;28;20029;-85
2022/05/03 06:45:25;;;;;;;4.03;1.75;;;10.60;99.90;;;;;;4978943;28;20622;-87
2022/05/03 06:47:51;;;;;;;5.80;1.90;;;10.70;99.90;;;;;;4978132;28;20037;-87
2022/05/03 06:50:17;;;;;;;4.15;1.98;;;10.80;99.90;;;;;;4994290;28;20154;-87
2022/05/03 06:52:43;;;;;;;3.92;1.67;;;10.90;99.90;;;;;;4978621;28;20061;-87
2022/05/03 06:55:10;;;;;;;2.97;1.50;;;11.00;99.90;;;;;;4978495;28;20061;-87
2022/05/03 06:57:36;;;;;;;6.90;1.63;;;11.10;99.40;;;;;;4978669;28;20113;-87
2022/05/03 07:00:05;;;;;;;2.97;1.52;;;11.30;98.80;;;;;;4975779;28;20112;-85
2022/05/03 07:02:32;;;;;;;3.28;1.27;;;11.40;98.10;;;;;;4968121;28;20023;-86
2022/05/03 07:05:03;;;;;;;4.53;1.60;;;11.40;97.10;;;;;;4977728;28;20509;-84
2022/05/03 07:07:30;;;;;;;4.13;1.63;;;11.50;96.00;;;;;;4979269;28;20069;-87
2022/05/03 07:09:56;;;;;;;3.20;1.48;;;11.60;95.70;;;;;;4977555;28;20070;-89
2022/05/03 07:12:22;;;;;;;3.38;1.27;;;11.70;95.20;;;;;;4968475;28;20501;-86
2022/05/03 07:14:48;;;;;;;5.90;1.80;;;11.90;95.10;;;;;;4963572;28;20081;-85
2022/05/03 07:22:45;;;;;;;5.68;1.55;;;12.00;94.50;;;;;;4976655;28;20045;-86
2022/05/03 07:22:46;;;;;;;3.17;1.40;;;12.20;93.20;;;;;;4985596;28;20038;-88
2022/05/03 07:25:16;;;;;;;4.13;1.33;;;12.30;92.90;;;;;;4980254;28;20802;-85
2022/05/03 07:27:43;;;;;;;3.45;1.58;;;12.40;92.60;;;;;;4995854;28;20025;-87
2022/05/03 07:30:09;;;;;;;3.10;1.40;;;12.40;92.30;;;;;;4977818;28;20042;-87
2022/05/03 07:32:35;;;;;;;3.28;1.23;;;12.50;92.10;;;;;;4976789;28;20125;-88
2022/05/03 07:35:00;;;;;;;3.92;1.65;;;12.60;91.40;;;;;;4967447;28;20054;-87
2022/05/03 07:37:26;;;;;;;4.07;1.55;;;12.60;90.70;;;;;;4984927;28;20031;-88
2022/05/03 07:39:51;;;;;;;3.75;1.60;;;12.70;90.90;;;;;;4976076;28;20438;-86
2022/05/03 07:42:17;;;;;;;3.25;1.60;;;12.80;90.40;;;;;;4977929;28;20117;-85
2022/05/03 07:44:42;;;;;;;4.72;1.42;;;12.80;90.10;;;;;;4978538;28;20062;-87
2022/05/03 07:47:08;;;;;;;5.38;2.03;;;12.90;90.00;;;;;;4964383;28;20211;-86
2022/05/03 07:49:33;;;;;;;3.63;1.88;;;13.00;89.50;;;;;;4972997;28;20129;-88
2022/05/03 07:51:59;;;;;;;6.45;2.60;;;13.10;89.90;;;;;;4968815;28;20038;-87
2022/05/03 07:54:24;;;;;;;2.83;1.60;;;13.30;89.10;;;;;;4977885;28;20065;-84
2022/05/03 07:56:50;;;;;;;4.88;2.65;;;13.40;88.50;;;;;;4977067;28;20031;-87
2022/05/03 07:59:15;;;;;;;5.20;2.08;;;13.40;88.40;;;;;;4972450;28;20038;-88
2022/05/03 08:01:41;;;;;;;3.88;2.33;;;13.50;87.80;;;;;;4973898;28;20044;-87
2022/05/03 08:04:07;;;;;;;4.82;2.40;;;13.50;87.50;;;;;;4974242;28;20033;-88
2022/05/03 08:06:34;;;;;;;4.25;2.35;;;13.60;87.50;;;;;;4974974;28;20085;-87
2022/05/03 08:09:00;;;;;;;7.07;2.90;;;13.70;87.00;;;;;;4976061;28;20023;-89
2022/05/03 08:11:25;;;;;;;6.93;3.08;;;13.90;87.10;;;;;;4967727;28;20394;-87
2022/05/03 08:13:52;;;;;;;7.10;3.15;;;13.90;85.30;;;;;;4978012;28;20058;-88
2022/05/03 08:16:23;;;;;;;14.30;3.72;;;14.00;84.90;;;;;;4977973;28;20034;-87
2022/05/03 08:18:49;;;;;;;5.65;3.35;;;14.00;84.80;;;;;;4976675;28;20945;-87
2022/05/03 08:21:15;;;;;;;7.18;2.95;;;14.10;84.20;;;;;;4975624;28;20030;-86
2022/05/03 08:23:41;;;;;;;4.50;2.55;;;14.10;83.50;;;;;;4977463;28;20030;-86
2022/05/03 08:26:06;;;;;;;4.15;2.80;;;14.20;84.10;;;;;;4977269;28;20057;-87
2022/05/03 08:28:33;;;;;;;5.60;2.90;;;14.30;84.40;;;;;;4978013;28;20034;-86
2022/05/03 08:30:59;;;;;;;8.45;3.53;;;14.40;83.90;;;;;;4970768;28;20188;-86
2022/05/03 08:33:26;;;;;;;10.85;3.25;;;14.40;83.90;;;;;;4959299;28;20121;-87
2022/05/03 08:35:51;;;;;;;5.32;3.72;;;14.60;84.00;;;;;;4970008;28;20036;-87
2022/05/03 08:43:53;;;;;;;7.18;3.63;;;14.70;83.90;;;;;;4960210;28;20126;-86
2022/05/03 08:46:21;;;;;;;8.95;3.55;;;14.80;84.50;;;;;;4975373;28;20074;-86
2022/05/03 08:48:49;;;;;;;7.35;3.47;;;14.90;83.60;;;;;;4977078;28;20026;-86
2022/05/03 08:51:21;;;;;;;4.47;3.28;;;15.00;83.00;;;;;;4975265;28;20042;-86
2022/05/03 08:53:46;;;;;;;10.90;4.37;;;15.00;84.00;;;;;;4980703;28;20464;-85
2022/05/03 08:56:12;;;;;;;9.65;3.75;;;15.00;83.40;;;;;;4997871;28;20066;-85
2022/05/03 08:58:39;;;;;;;8.32;3.75;;;15.10;83.20;;;;;;4980459;28;20734;-85
2022/05/03 09:01:04;;;;;;;6.13;3.58;;;15.20;82.70;;;;;;4979374;28;20022;-85
2022/05/03 09:03:30;;;;;;;15.00;4.57;;;15.20;83.20;;;;;;4981062;28;20034;-85
2022/05/03 09:05:56;;;;;;;9.43;4.40;;;15.30;83.70;;;;;;4967087;28;20022;-86
2022/05/03 09:08:25;;;;;;;7.50;4.03;;;15.50;83.40;;;;;;4977062;28;20023;-85
2022/05/03 09:10:51;;;;;;;7.45;4.80;;;15.50;83.10;;;;;;4975244;28;20505;-85
2022/05/03 09:13:25;;;;;;;6.18;4.25;;;15.50;82.50;;;;;;4977382;28;20026;-85
2022/05/03 09:15:56;;;;;;;7.53;4.43;;;15.50;83.00;;;;;;4979684;28;20049;-83
2022/05/03 09:18:27;;;;;;;5.68;4.38;;;15.50;83.00;;;;;;4996375;28;20023;-82
2022/05/03 09:23:53;;;;;;;8.68;4.28;;;15.60;83.90;;;;;;4995864;28;20045;-82
2022/05/03 09:26:24;;;;;;;10.57;4.50;;;15.70;83.30;;;;;;4979301;28;20521;-85
2022/05/03 09:28:52;;;;;;;6.22;4.43;;;15.70;81.30;;;;;;4982735;28;20045;-85
2022/05/03 09:31:39;;;;;;;6.50;4.57;;;15.70;81.50;;;;;;4980522;28;20035;-85
2022/05/03 09:34:19;;;;;;;8.68;4.82;;;15.80;81.60;;;;;;4978898;28;20031;-85
2022/05/03 09:36:47;;;;;;;8.40;4.90;;;15.90;82.00;;;;;;4978246;28;20065;-85
2022/05/03 09:39:21;;;;;;;8.48;4.43;;;16.00;82.10;;;;;;4978998;28;20026;-85
2022/05/03 09:42:09;;;;;;;5.55;4.40;;;16.00;82.30;;;;;;4973551;28;20026;-85
2022/05/03 09:44:37;;;;;;;9.00;5.03;;;16.00;81.70;;;;;;4969001;28;20399;-84
2022/05/03 09:47:11;;;;;;;13.02;4.70;;;16.10;81.80;;;;;;4969067;28;20501;-85
2022/05/03 09:49:41;;;;;;;8.10;5.10;;;16.20;82.30;;;;;;4995117;28;20485;-85
2022/05/03 09:52:09;;;;;;;7.10;4.88;;;16.30;82.20;;;;;;4986786;28;20023;-86
2022/05/03 09:54:48;;;;;;;10.65;6.40;;;16.30;82.00;;;;;;4986021;28;20026;-86
2022/05/03 09:57:25;;;;;;;7.60;5.25;;;16.30;82.40;;;;;;4996580;28;20030;-85
2022/05/03 09:59:52;;;;;;;9.50;5.32;;;16.30;81.80;;;;;;4980474;28;20031;-86
2022/05/03 10:02:21;;;;;;;8.93;6.57;;;16.40;81.60;;;;;;4990821;28;20034;-87
2022/05/03 10:04:47;;;;;;;10.27;7.20;;;16.40;82.60;;;;;;4974646;28;20379;-86
2022/05/03 10:07:14;;;;;;;10.55;7.38;;;16.50;82.30;;;;;;4994277;28;20054;-86
2022/05/03 10:09:40;;;;;;;10.18;6.70;;;16.50;82.30;;;;;;4962359;28;20034;-86
2022/05/03 10:12:13;;;;;;;13.23;7.18;;;16.60;83.00;;;;;;4995994;28;20031;-85
2022/05/03 10:14:39;;;;;;;9.55;6.57;;;16.80;82.50;;;;;;4994352;28;20026;-86
2022/05/03 10:20:42;;;;;;;11.23;7.75;;;16.90;82.30;;;;;;4994881;28;20092;-86
2022/05/03 10:23:28;;;;;;;13.48;8.68;;;16.80;83.20;;;;;;4962769;28;20041;-85
2022/05/03 10:25:56;;;;;;;9.98;7.43;;;17.00;82.60;;;;;;4964852;28;20061;-86
2022/05/03 10:28:22;;;;;;;11.88;7.97;;;17.10;81.90;;;;;;4958469;28;20101;-84
2022/05/03 10:31:07;;;;;;;11.63;7.40;;;17.20;81.00;;;;;;4958299;28;20495;-85
2022/05/03 10:33:35;;;;;;;13.65;7.88;;;17.20;80.70;;;;;;4976496;28;20134;-85
2022/05/03 10:36:02;;;;;;;11.57;7.60;;;17.30;80.90;;;;;;4976601;28;20089;-85
2022/05/03 10:38:37;;;;;;;10.88;8.00;;;17.60;81.60;;;;;;4978051;28;20027;-86
2022/05/03 10:41:05;;;;;;;13.05;7.35;;;18.10;81.30;;;;;;4973251;28;20698;-86
2022/05/03 10:43:30;;;;;;;12.68;7.88;;;18.20;80.40;;;;;;4977127;28;20031;-84
2022/05/03 10:45:58;;;;;;;13.38;8.30;;;18.20;80.30;;;;;;4976968;28;20038;-85
2022/05/03 10:48:33;;;;;;;10.93;7.65;;;18.10;79.80;;;;;;4977252;28;20070;-85
2022/05/03 10:51:03;;;;;;;9.63;7.50;;;18.00;80.10;;;;;;4976920;28;20584;-85
2022/05/03 10:53:41;;;;;;;12.05;7.97;;;18.00;80.00;;;;;;4992389;28;20104;-86
2022/05/03 10:56:22;;;;;;;13.23;8.80;;;18.00;80.20;;;;;;4975540;28;20034;-86
2022/05/03 10:59:13;;;;;;;11.10;7.95;;;18.30;79.90;;;;;;4976723;28;20019;-85
2022/05/03 11:02:00;;;;;;;10.68;8.88;;;18.50;79.50;;;;;;4977035;28;20118;-85
2022/05/03 11:04:26;;;;;;;12.38;8.77;;;18.60;78.60;;;;;;4976472;28;20034;-86
2022/05/03 11:06:52;;;;;;;13.25;8.30;;;18.50;78.10;;;;;;4976757;28;20429;-86
2022/05/03 11:09:28;;;;;;;12.73;8.32;;;18.40;78.70;;;;;;4959244;28;20181;-86
2022/05/03 11:11:56;;;;;;;12.00;7.82;;;18.30;79.00;;;;;;4976090;28;20031;-87
2022/05/03 11:14:22;;;;;;;12.88;7.80;;;18.10;79.50;;;;;;4975822;28;20029;-86
2022/05/03 11:17:04;;;;;;;13.25;7.90;;;17.90;80.20;;;;;;4976139;28;20495;-86
2022/05/03 11:19:30;;;;;;;10.10;7.87;;;17.70;80.90;;;;;;4977369;28;20034;-86
2022/05/03 11:21:58;;;;;;;12.82;8.95;;;17.70;81.80;;;;;;4976216;28;20053;-85
2022/05/03 11:24:29;;;;;;;11.65;8.15;;;17.80;81.90;;;;;;4983354;28;20029;-86
2022/05/03 11:27:03;;;;;;;12.30;7.28;;;18.10;81.90;;;;;;4976480;28;20065;-84
2022/05/03 11:29:30;;;;;;;11.88;7.50;;;18.20;81.30;;;;;;4976030;28;20041;-86
2022/05/03 11:31:58;;;;;;;9.50;7.22;;;18.20;80.20;;;;;;4976033;28;20050;-86
2022/05/03 11:34:24;;;;;;;8.50;5.40;;;18.10;80.20;;;;;;4979796;28;20022;-87
2022/05/03 11:36:50;;;;;;;7.43;5.47;;;18.00;80.30;;;;;;4970130;28;20499;-86
2022/05/03 11:39:20;;;;;;;8.98;5.90;;;18.00;80.80;;;;;;4963095;28;20031;-86
2022/05/03 11:41:47;;;;;;;9.93;7.18;;;18.20;81.10;;;;;;4971684;28;20058;-85
2022/05/03 11:44:17;;;;;;;12.90;7.13;;;18.60;80.70;;;;;;4970814;28;20101;-85
2022/05/03 11:46:45;;;;;;;12.75;8.38;;;18.90;80.20;;;;;;4983849;28;20520;-86
2022/05/03 11:49:14;;;;;;;12.73;8.65;;;19.10;77.80;;;;;;4968395;28;20086;-87
2022/05/03 11:57:42;;;;;;;9.05;5.80;;;18.40;78.50;;;;;;4993692;28;20092;-86
2022/05/03 12:00:13;;;;;;;7.70;4.63;;;18.50;77.80;;;;;;4975140;28;20092;-86
2022/05/03 12:02:43;;;;;;;6.65;4.85;;;18.70;76.80;;;;;;4975911;28;20897;-86
2022/05/03 12:05:11;;;;;;;9.77;4.43;;;18.90;75.30;;;;;;4976161;28;20104;-86
2022/05/03 12:07:41;;;;;;;5.45;3.50;;;18.90;73.20;;;;;;4993581;28;20363;-85
2022/05/03 12:10:18;;;;;;;6.68;4.78;;;18.90;72.30;;;;;;4975416;28;20880;-86
2022/05/03 12:12:43;;;;;;;6.28;4.65;;;18.90;72.50;;;;;;4986769;28;20025;-85
2022/05/03 12:15:20;;;;;;;5.68;4.15;;;19.00;73.00;;;;;;4970848;28;20418;-85
2022/05/03 12:17:54;;;;;;;6.95;5.18;;;19.10;73.00;;;;;;4989676;28;20506;-85
2022/05/03 12:20:21;;;;;;;9.18;6.43;;;19.20;72.70;;;;;;4980270;28;20050;-85
2022/05/03 12:23:16;;;;;;;9.80;6.25;;;18.90;73.20;;;;;;4973404;28;20019;-85
2022/05/03 12:25:43;;;;;;;8.60;6.20;;;18.90;74.80;;;;;;4976864;28;20109;-85
2022/05/03 12:28:09;;;;;;;9.63;7.80;;;19.00;74.90;;;;;;4978306;28;20029;-85
2022/05/03 12:30:36;;;;;;;9.60;6.90;;;19.10;74.30;;;;;;4979262;28;20145;-85
2022/05/03 12:33:11;;;;;;;9.57;7.20;;;19.10;74.40;;;;;;4978575;28;20051;-84
2022/05/03 12:35:40;;;;;;;11.85;5.28;;;19.20;74.30;;;;;;4978761;28;20441;-85
2022/05/03 12:38:14;;;;;;;9.88;4.88;;;19.20;73.30;;;;;;4993379;28;22291;-84
2022/05/03 12:40:57;;;;;;;6.70;4.05;;;19.20;73.40;;;;;;4978652;28;20080;-84
2022/05/03 12:43:26;;;;;;;6.80;3.95;;;19.40;72.70;;;;;;4995428;28;20153;-84
2022/05/03 12:46:09;;;;;;;15.05;3.70;;;19.60;73.00;;;;;;4979925;28;20783;-85
2022/05/03 12:48:36;;;;;;;4.43;2.38;;;20.00;71.60;;;;;;4982135;28;20042;-85
2022/05/03 12:51:03;;;;;;;5.53;3.90;;;20.20;71.30;;;;;;4963662;28;20063;-85
2022/05/03 12:53:34;;;;;;;6.25;3.33;;;20.20;69.20;;;;;;4978467;28;20040;-85
2022/05/03 12:58:21;;;;;;;5.90;3.67;;;20.30;68.60;;;;;;4978104;28;20030;-85
2022/05/03 12:58:47;;;;;;;5.13;4.35;;;20.50;68.80;;;;;;4995465;28;20454;-86
2022/05/03 13:01:12;;;;;;;9.50;5.18;;;20.60;69.60;;;;;;4980399;28;20056;-84
2022/05/03 13:03:46;;;;;;;5.10;3.90;;;20.80;70.00;;;;;;4978439;28;20486;-83
2022/05/03 13:06:11;;;;;;;5.10;3.28;;;21.00;67.60;;;;;;4978094;28;20049;-84
2022/05/03 13:08:37;;;;;;;7.03;5.68;;;21.10;67.00;;;;;;4994971;28;20038;-83
2022/05/03 13:11:02;;;;;;;11.25;6.13;;;21.10;65.80;;;;;;4993552;28;20062;-84
2022/05/03 13:13:28;;;;;;;7.00;5.50;;;20.90;65.90;;;;;;4977517;28;20462;-84
2022/05/03 13:15:54;;;;;;;7.90;4.78;;;20.50;67.10;;;;;;4975295;28;20450;-84
2022/05/03 13:18:20;;;;;;;18.42;12.00;;;20.10;68.20;;;;;;4961801;28;20069;-83
2022/05/03 13:20:45;;;;;;;24.00;15.93;;;19.70;70.40;;;;;;4991516;28;20083;-84
2022/05/03 13:23:11;;;;;;;30.63;18.80;;;19.10;72.80;;;;;;4977835;28;20418;-83
2022/05/03 13:25:36;;;;;;;27.60;18.40;;;18.60;76.10;;;;;;4994486;28;20549;-83
2022/05/03 13:28:03;;;;;;;30.20;19.92;;;18.00;77.90;;;;;;4984595;28;20026;-84
2022/05/03 13:30:28;;;;;;;30.35;19.27;;;17.60;80.10;;;;;;4977981;28;20065;-84
2022/05/03 13:32:54;;;;;;;31.92;18.20;;;17.30;81.70;;;;;;4989703;28;20526;-83
2022/05/03 13:40:28;;;;;;;32.03;19.80;;;17.20;83.10;;;;;;4966820;28;20022;-84